sensor_id;sensor_type;location;lat;lon;timestamp;temperature;humidity
19397;DHT22;9834;48.076;11.878;2024-02-26T04:00:53;0.00;99.90
19397;DHT22;9834;48.076;11.878;2024-02-26T04:03:20;0.00;99.90
19397;DHT22;9834;48.076;11.878;2024-02-26T04:05:48;0.00;99.90
19397;DHT22;9834;48.076;11.878;2024-02-26T04:08:21;-0.10;99.90
19397;DHT22;9834;48.076;11.878;2024-02-26T04:10:55;-0.10;99.90
19397;DHT22;9834;48.076;11.878;2024-02-26T04:13:22;-0.10;99.90
19397;DHT22;9834;48.076;11.878;2024-02-26T04:15:50;-0.10;99.90
19397;DHT22;9834;48.076;11.878;2024-02-26T04:18:19;-0.10;99.90
19397;DHT22;9834;48.076;11.878;2024-02-26T04:20:48;-0.10;99.90
19397;DHT22;9834;48.076;11.878;2024-02-26T04:23:17;-0.10;99.90
19397;DHT22;9834;48.076;11.878;2024-02-26T04:25:45;-0.10;99.90
19397;DHT22;9834;48.076;11.878;2024-02-26T04:28:12;-0.10;99.90
19397;DHT22;9834;48.076;11.878;2024-02-26T04:30:43;-0.10;99.90
19397;DHT22;9834;48.076;11.878;2024-02-26T04:33:12;-0.10;99.90
19397;DHT22;9834;48.076;11.878;2024-02-26T04:35:41;-0.10;99.90
19397;DHT22;9834;48.076;11.878;2024-02-26T04:38:09;-0.10;99.90
19397;DHT22;9834;48.076;11.878;2024-02-26T04:40:42;-0.10;99.90
19397;DHT22;9834;48.076;11.878;2024-02-26T04:43:25;-0.10;99.90
19397;DHT22;9834;48.076;11.878;2024-02-26T04:45:58;-0.20;99.90
19397;DHT22;9834;48.076;11.878;2024-02-26T04:48:40;-0.30;99.90
19397;DHT22;9834;48.076;11.878;2024-02-26T04:51:14;-0.20;99.90
19397;DHT22;9834;48.076;11.878;2024-02-26T04:53:47;-0.20;99.90
19397;DHT22;9834;48.076;11.878;2024-02-26T04:56:15;-0.20;99.90
19397;DHT22;9834;48.076;11.878;2024-02-26T04:58:42;-0.20;99.90
19397;DHT22;9834;48.076;11.878;2024-02-26T05:01:11;-0.20;99.90
19397;DHT22;9834;48.076;11.878;2024-02-26T05:03:45;-0.20;99.90
19397;DHT22;9834;48.076;11.878;2024-02-26T05:06:14;-0.20;99.90
19397;DHT22;9834;48.076;11.878;2024-02-26T05:08:44;-0.20;99.90
19397;DHT22;9834;48.076;11.878;2024-02-26T05:11:12;-0.20;99.90
19397;DHT22;9834;48.076;11.878;2024-02-26T05:13:42;-0.20;99.90
19397;DHT22;9834;48.076;11.878;2024-02-26T05:16:13;-0.20;99.90
19397;DHT22;9834;48.076;11.878;2024-02-26T05:18:47;-0.20;99.90
19397;DHT22;9834;48.076;11.878;2024-02-26T05:21:16;-0.20;99.90
19397;DHT22;9834;48.076;11.878;2024-02-26T05:23:43;-0.10;99.90
19397;DHT22;9834;48.076;11.878;2024-02-26T05:26:11;-0.10;99.90
19397;DHT22;9834;48.076;11.878;2024-02-26T05:28:41;-0.10;99.90
19397;DHT22;9834;48.076;11.878;2024-02-26T05:31:12;0.00;99.90
19397;DHT22;9834;48.076;11.878;2024-02-26T05:33:40;0.00;99.90
19397;DHT22;9834;48.076;11.878;2024-02-26T05:36:10;0.00;99.90
19397;DHT22;9834;48.076;11.878;2024-02-26T05:38:49;-0.10;99.90
19397;DHT22;9834;48.076;11.878;2024-02-26T05:41:17;0.00;99.90
19397;DHT22;9834;48.076;11.878;2024-02-26T05:43:52;0.00;99.90
19397;DHT22;9834;48.076;11.878;2024-02-26T05:46:37;0.00;99.90
19397;DHT22;9834;48.076;11.878;2024-02-26T05:49:09;0.00;99.90
19397;DHT22;9834;48.076;11.878;2024-02-26T05:51:41;0.00;99.90
19397;DHT22;9834;48.076;11.878;2024-02-26T05:54:12;0.00;99.90
19397;DHT22;9834;48.076;11.878;2024-02-26T05:56:43;0.00;99.90
19397;DHT22;9834;48.076;11.878;2024-02-26T05:59:10;0.10;99.90
19397;DHT22;9834;48.076;11.878;2024-02-26T06:01:44;0.10;99.90
19397;DHT22;9834;48.076;11.878;2024-02-26T06:04:12;0.20;99.90
19397;DHT22;9834;48.076;11.878;2024-02-26T06:06:40;0.20;99.90
19397;DHT22;9834;48.076;11.878;2024-02-26T06:09:08;0.20;99.90
19397;DHT22;9834;48.076;11.878;2024-02-26T06:11:38;0.20;99.90
19397;DHT22;9834;48.076;11.878;2024-02-26T06:14:06;0.30;99.90
19397;DHT22;9834;48.076;11.878;2024-02-26T06:16:36;0.30;99.90
19397;DHT22;9834;48.076;11.878;2024-02-26T06:19:07;0.40;99.90
19397;DHT22;9834;48.076;11.878;2024-02-26T06:21:34;0.40;99.90
19397;DHT22;9834;48.076;11.878;2024-02-26T06:24:02;0.40;99.90
19397;DHT22;9834;48.076;11.878;2024-02-26T06:26:32;0.50;99.90
19397;DHT22;9834;48.076;11.878;2024-02-26T06:29:01;0.60;99.90
19397;DHT22;9834;48.076;11.878;2024-02-26T06:31:30;0.70;99.90
19397;DHT22;9834;48.076;11.878;2024-02-26T06:33:58;0.80;99.90
19397;DHT22;9834;48.076;11.878;2024-02-26T06:36:29;0.90;99.90
19397;DHT22;9834;48.076;11.878;2024-02-26T06:39:11;1.10;99.90
19397;DHT22;9834;48.076;11.878;2024-02-26T06:41:38;1.30;99.90
19397;DHT22;9834;48.076;11.878;2024-02-26T06:44:07;1.40;99.90
19397;DHT22;9834;48.076;11.878;2024-02-26T06:46:35;1.70;99.90
19397;DHT22;9834;48.076;11.878;2024-02-26T06:49:02;1.80;99.90
19397;DHT22;9834;48.076;11.878;2024-02-26T06:51:30;1.90;99.90
19397;DHT22;9834;48.076;11.878;2024-02-26T06:54:00;2.00;99.90
19397;DHT22;9834;48.076;11.878;2024-02-26T06:56:28;2.10;99.90
19397;DHT22;9834;48.076;11.878;2024-02-26T06:58:56;2.20;99.90
19397;DHT22;9834;48.076;11.878;2024-02-26T07:01:26;2.30;99.90
19397;DHT22;9834;48.076;11.878;2024-02-26T07:03:53;2.40;99.90
19397;DHT22;9834;48.076;11.878;2024-02-26T07:06:21;2.60;99.90
19397;DHT22;9834;48.076;11.878;2024-02-26T07:08:50;2.70;99.90
19397;DHT22;9834;48.076;11.878;2024-02-26T07:11:19;2.80;99.90
19397;DHT22;9834;48.076;11.878;2024-02-26T07:13:47;2.90;99.90
19397;DHT22;9834;48.076;11.878;2024-02-26T07:16:15;2.90;99.90
19397;DHT22;9834;48.076;11.878;2024-02-26T07:18:44;3.00;99.90
19397;DHT22;9834;48.076;11.878;2024-02-26T07:21:12;3.10;99.90
19397;DHT22;9834;48.076;11.878;2024-02-26T07:23:41;3.20;99.90
19397;DHT22;9834;48.076;11.878;2024-02-26T07:26:09;3.30;99.90
19397;DHT22;9834;48.076;11.878;2024-02-26T07:28:37;3.40;99.90
19397;DHT22;9834;48.076;11.878;2024-02-26T07:31:05;3.60;99.90
19397;DHT22;9834;48.076;11.878;2024-02-26T07:33:35;3.80;99.90
19397;DHT22;9834;48.076;11.878;2024-02-26T07:36:08;3.90;99.90
19397;DHT22;9834;48.076;11.878;2024-02-26T07:38:43;4.00;99.90
19397;DHT22;9834;48.076;11.878;2024-02-26T07:41:11;4.20;99.90
19397;DHT22;9834;48.076;11.878;2024-02-26T07:43:38;4.40;99.90
19397;DHT22;9834;48.076;11.878;2024-02-26T07:46:06;4.50;99.90
19397;DHT22;9834;48.076;11.878;2024-02-26T07:48:34;4.70;99.90
19397;DHT22;9834;48.076;11.878;2024-02-26T07:51:01;4.90;99.90
19397;DHT22;9834;48.076;11.878;2024-02-26T07:53:31;5.10;99.90
19397;DHT22;9834;48.076;11.878;2024-02-26T07:55:58;5.30;99.90
19397;DHT22;9834;48.076;11.878;2024-02-26T07:58:26;5.50;99.90
19397;DHT22;9834;48.076;11.878;2024-02-26T08:00:57;5.70;99.90
19397;DHT22;9834;48.076;11.878;2024-02-26T08:03:27;5.90;99.90
19397;DHT22;9834;48.076;11.878;2024-02-26T08:06:01;6.00;99.90
19397;DHT22;9834;48.076;11.878;2024-02-26T08:08:28;6.20;99.90
19397;DHT22;9834;48.076;11.878;2024-02-26T08:10:57;6.30;99.90
19397;DHT22;9834;48.076;11.878;2024-02-26T08:13:24;6.40;99.90
19397;DHT22;9834;48.076;11.878;2024-02-26T08:16:05;6.60;99.90
19397;DHT22;9834;48.076;11.878;2024-02-26T08:18:33;6.70;99.90
19397;DHT22;9834;48.076;11.878;2024-02-26T08:21:04;6.80;99.90
19397;DHT22;9834;48.076;11.878;2024-02-26T08:23:31;6.90;99.90
19397;DHT22;9834;48.076;11.878;2024-02-26T08:26:00;7.00;99.90
19397;DHT22;9834;48.076;11.878;2024-02-26T08:28:30;7.10;99.90
19397;DHT22;9834;48.076;11.878;2024-02-26T08:30:58;7.20;99.90
19397;DHT22;9834;48.076;11.878;2024-02-26T08:33:26;7.40;99.90
19397;DHT22;9834;48.076;11.878;2024-02-26T08:35:53;7.60;98.50
19397;DHT22;9834;48.076;11.878;2024-02-26T08:38:20;7.80;97.60
19397;DHT22;9834;48.076;11.878;2024-02-26T08:40:51;7.90;94.30
19397;DHT22;9834;48.076;11.878;2024-02-26T08:43:22;8.10;94.10
19397;DHT22;9834;48.076;11.878;2024-02-26T08:45:53;8.10;95.30
19397;DHT22;9834;48.076;11.878;2024-02-26T08:48:20;8.20;93.30
19397;DHT22;9834;48.076;11.878;2024-02-26T08:50:49;8.10;92.40
19397;DHT22;9834;48.076;11.878;2024-02-26T08:53:21;8.00;92.10
19397;DHT22;9834;48.076;11.878;2024-02-26T08:55:52;7.90;91.60
19397;DHT22;9834;48.076;11.878;2024-02-26T08:58:21;7.90;92.00
19397;DHT22;9834;48.076;11.878;2024-02-26T09:00:49;7.80;90.80
19397;DHT22;9834;48.076;11.878;2024-02-26T09:03:16;7.80;91.50
19397;DHT22;9834;48.076;11.878;2024-02-26T09:05:47;7.70;90.90
19397;DHT22;9834;48.076;11.878;2024-02-26T09:08:17;7.70;92.80
19397;DHT22;9834;48.076;11.878;2024-02-26T09:10:50;7.80;91.10
19397;DHT22;9834;48.076;11.878;2024-02-26T09:13:21;7.80;90.70
19397;DHT22;9834;48.076;11.878;2024-02-26T09:15:49;7.80;91.70
19397;DHT22;9834;48.076;11.878;2024-02-26T09:18:16;7.90;91.70
19397;DHT22;9834;48.076;11.878;2024-02-26T09:20:43;7.90;90.60
19397;DHT22;9834;48.076;11.878;2024-02-26T09:23:11;8.00;91.00
19397;DHT22;9834;48.076;11.878;2024-02-26T09:25:38;8.20;89.80
19397;DHT22;9834;48.076;11.878;2024-02-26T09:28:09;8.40;89.50
19397;DHT22;9834;48.076;11.878;2024-02-26T09:30:38;8.70;86.50
19397;DHT22;9834;48.076;11.878;2024-02-26T09:33:06;8.70;84.10
19397;DHT22;9834;48.076;11.878;2024-02-26T09:35:33;8.80;84.80
19397;DHT22;9834;48.076;11.878;2024-02-26T09:38:01;9.00;83.60
19397;DHT22;9834;48.076;11.878;2024-02-26T09:40:29;9.10;80.80
19397;DHT22;9834;48.076;11.878;2024-02-26T09:43:00;9.00;78.90
19397;DHT22;9834;48.076;11.878;2024-02-26T09:45:28;9.10;79.10
19397;DHT22;9834;48.076;11.878;2024-02-26T09:48:01;9.10;79.50
19397;DHT22;9834;48.076;11.878;2024-02-26T09:50:31;9.30;80.60
19397;DHT22;9834;48.076;11.878;2024-02-26T09:52:59;9.40;79.00
19397;DHT22;9834;48.076;11.878;2024-02-26T09:55:28;9.80;77.50
19397;DHT22;9834;48.076;11.878;2024-02-26T09:57:58;10.10;76.00
19397;DHT22;9834;48.076;11.878;2024-02-26T10:00:39;10.30;73.30
19397;DHT22;9834;48.076;11.878;2024-02-26T10:03:13;10.60;71.70
19397;DHT22;9834;48.076;11.878;2024-02-26T10:05:42;10.60;72.30
19397;DHT22;9834;48.076;11.878;2024-02-26T10:08:11;10.80;73.30
19397;DHT22;9834;48.076;11.878;2024-02-26T10:10:39;10.60;70.10
19397;DHT22;9834;48.076;11.878;2024-02-26T10:13:07;10.70;72.80
19397;DHT22;9834;48.076;11.878;2024-02-26T10:15:40;10.70;73.50
19397;DHT22;9834;48.076;11.878;2024-02-26T10:18:10;10.80;71.80
19397;DHT22;9834;48.076;11.878;2024-02-26T10:20:41;10.80;71.20
19397;DHT22;9834;48.076;11.878;2024-02-26T10:23:11;10.80;71.60
19397;DHT22;9834;48.076;11.878;2024-02-26T10:25:52;10.80;74.30
19397;DHT22;9834;48.076;11.878;2024-02-26T10:28:23;10.90;70.60
19397;DHT22;9834;48.076;11.878;2024-02-26T10:30:52;11.10;70.10
19397;DHT22;9834;48.076;11.878;2024-02-26T10:33:22;11.00;69.50
19397;DHT22;9834;48.076;11.878;2024-02-26T10:35:53;11.10;70.20
19397;DHT22;9834;48.076;11.878;2024-02-26T10:38:21;10.90;68.70
19397;DHT22;9834;48.076;11.878;2024-02-26T10:40:49;11.00;70.20
19397;DHT22;9834;48.076;11.878;2024-02-26T10:43:18;11.00;70.90
19397;DHT22;9834;48.076;11.878;2024-02-26T10:45:45;11.00;68.60
19397;DHT22;9834;48.076;11.878;2024-02-26T10:48:15;11.10;70.50
19397;DHT22;9834;48.076;11.878;2024-02-26T10:50:50;11.20;68.10
19397;DHT22;9834;48.076;11.878;2024-02-26T10:53:21;11.30;69.90
19397;DHT22;9834;48.076;11.878;2024-02-26T10:56:03;11.30;70.00
19397;DHT22;9834;48.076;11.878;2024-02-26T10:58:32;11.30;68.40
19397;DHT22;9834;48.076;11.878;2024-02-26T11:01:08;11.60;67.20
19397;DHT22;9834;48.076;11.878;2024-02-26T11:03:36;11.80;67.00
19397;DHT22;9834;48.076;11.878;2024-02-26T11:06:07;12.00;66.80
19397;DHT22;9834;48.076;11.878;2024-02-26T11:08:42;12.60;67.30
19397;DHT22;9834;48.076;11.878;2024-02-26T11:11:10;13.20;65.90
19397;DHT22;9834;48.076;11.878;2024-02-26T11:13:42;13.90;64.80
19397;DHT22;9834;48.076;11.878;2024-02-26T11:16:16;14.40;63.00
19397;DHT22;9834;48.076;11.878;2024-02-26T11:18:49;14.70;61.00
19397;DHT22;9834;48.076;11.878;2024-02-26T11:21:22;14.60;59.00
19397;DHT22;9834;48.076;11.878;2024-02-26T11:23:56;14.40;59.10
19397;DHT22;9834;48.076;11.878;2024-02-26T11:26:24;14.10;58.20
19397;DHT22;9834;48.076;11.878;2024-02-26T11:28:54;14.20;59.40
19397;DHT22;9834;48.076;11.878;2024-02-26T11:31:24;14.10;55.80
19397;DHT22;9834;48.076;11.878;2024-02-26T11:33:53;13.90;56.60
19397;DHT22;9834;48.076;11.878;2024-02-26T11:36:32;13.80;57.80
19397;DHT22;9834;48.076;11.878;2024-02-26T11:39:00;13.90;56.40
19397;DHT22;9834;48.076;11.878;2024-02-26T11:41:30;13.90;54.30
19397;DHT22;9834;48.076;11.878;2024-02-26T11:43:59;13.90;55.30
19397;DHT22;9834;48.076;11.878;2024-02-26T11:46:29;13.90;54.50
19397;DHT22;9834;48.076;11.878;2024-02-26T11:48:59;13.90;55.30
19397;DHT22;9834;48.076;11.878;2024-02-26T11:51:32;14.10;55.00
19397;DHT22;9834;48.076;11.878;2024-02-26T11:54:03;14.80;54.60
19397;DHT22;9834;48.076;11.878;2024-02-26T11:56:34;15.60;53.20
19397;DHT22;9834;48.076;11.878;2024-02-26T11:59:09;17.00;54.00
19397;DHT22;9834;48.076;11.878;2024-02-26T12:01:40;18.20;50.20
19397;DHT22;9834;48.076;11.878;2024-02-26T12:04:17;18.90;46.70
19397;DHT22;9834;48.076;11.878;2024-02-26T12:06:51;19.00;47.00
19397;DHT22;9834;48.076;11.878;2024-02-26T12:09:35;18.50;44.60
19397;DHT22;9834;48.076;11.878;2024-02-26T12:12:07;18.60;46.40
19397;DHT22;9834;48.076;11.878;2024-02-26T12:14:40;19.50;44.90
19397;DHT22;9834;48.076;11.878;2024-02-26T12:17:08;20.80;41.00
19397;DHT22;9834;48.076;11.878;2024-02-26T12:19:44;21.20;39.60
19397;DHT22;9834;48.076;11.878;2024-02-26T12:22:16;22.20;38.70
19397;DHT22;9834;48.076;11.878;2024-02-26T12:24:45;23.00;37.80
19397;DHT22;9834;48.076;11.878;2024-02-26T12:27:16;24.20;36.60
19397;DHT22;9834;48.076;11.878;2024-02-26T12:29:55;23.90;37.90
19397;DHT22;9834;48.076;11.878;2024-02-26T12:32:23;24.50;34.90
19397;DHT22;9834;48.076;11.878;2024-02-26T12:34:51;24.70;32.90
19397;DHT22;9834;48.076;11.878;2024-02-26T12:37:20;22.20;34.10
19397;DHT22;9834;48.076;11.878;2024-02-26T12:39:47;21.20;37.40
19397;DHT22;9834;48.076;11.878;2024-02-26T12:42:18;21.50;37.00
19397;DHT22;9834;48.076;11.878;2024-02-26T12:44:45;22.20;37.50
19397;DHT22;9834;48.076;11.878;2024-02-26T12:47:23;22.50;35.50
19397;DHT22;9834;48.076;11.878;2024-02-26T12:49:53;22.70;35.80
19397;DHT22;9834;48.076;11.878;2024-02-26T12:52:22;23.30;35.60
19397;DHT22;9834;48.076;11.878;2024-02-26T12:54:53;23.40;33.10
19397;DHT22;9834;48.076;11.878;2024-02-26T12:57:22;23.30;34.50
19397;DHT22;9834;48.076;11.878;2024-02-26T12:59:52;22.30;34.00
19397;DHT22;9834;48.076;11.878;2024-02-26T13:02:22;20.20;34.50
19397;DHT22;9834;48.076;11.878;2024-02-26T13:04:54;18.70;36.90
19397;DHT22;9834;48.076;11.878;2024-02-26T13:07:24;18.20;38.80
19397;DHT22;9834;48.076;11.878;2024-02-26T13:09:52;18.10;39.20
19397;DHT22;9834;48.076;11.878;2024-02-26T13:12:29;19.00;39.10
19397;DHT22;9834;48.076;11.878;2024-02-26T13:15:03;20.70;37.40
19397;DHT22;9834;48.076;11.878;2024-02-26T13:17:34;22.20;35.00
19397;DHT22;9834;48.076;11.878;2024-02-26T13:20:04;24.10;32.60
19397;DHT22;9834;48.076;11.878;2024-02-26T13:22:39;25.30;29.80
19397;DHT22;9834;48.076;11.878;2024-02-26T13:25:07;26.30;30.00
19397;DHT22;9834;48.076;11.878;2024-02-26T13:27:35;26.60;30.40
19397;DHT22;9834;48.076;11.878;2024-02-26T13:30:08;26.30;29.90
19397;DHT22;9834;48.076;11.878;2024-02-26T13:32:37;24.60;29.80
19397;DHT22;9834;48.076;11.878;2024-02-26T13:35:09;23.20;32.10
19397;DHT22;9834;48.076;11.878;2024-02-26T13:37:41;22.20;33.50
19397;DHT22;9834;48.076;11.878;2024-02-26T13:40:09;20.70;34.30
19397;DHT22;9834;48.076;11.878;2024-02-26T13:42:43;20.40;35.40
19397;DHT22;9834;48.076;11.878;2024-02-26T13:45:13;21.10;38.10
19397;DHT22;9834;48.076;11.878;2024-02-26T13:47:40;21.70;36.70
19397;DHT22;9834;48.076;11.878;2024-02-26T13:50:11;22.00;37.80
19397;DHT22;9834;48.076;11.878;2024-02-26T13:52:51;21.60;37.20
19397;DHT22;9834;48.076;11.878;2024-02-26T13:55:20;20.80;39.00
19397;DHT22;9834;48.076;11.878;2024-02-26T13:57:49;20.20;39.90
19397;DHT22;9834;48.076;11.878;2024-02-26T14:00:18;21.00;39.50
19397;DHT22;9834;48.076;11.878;2024-02-26T14:02:45;22.60;37.10
19397;DHT22;9834;48.076;11.878;2024-02-26T14:05:13;23.00;35.70
19397;DHT22;9834;48.076;11.878;2024-02-26T14:07:41;23.80;35.40
19397;DHT22;9834;48.076;11.878;2024-02-26T14:10:18;24.40;31.80
19397;DHT22;9834;48.076;11.878;2024-02-26T14:12:48;25.00;32.00
19397;DHT22;9834;48.076;11.878;2024-02-26T14:15:16;25.10;31.80
19397;DHT22;9834;48.076;11.878;2024-02-26T14:17:49;25.10;31.10
19397;DHT22;9834;48.076;11.878;2024-02-26T14:20:20;24.90;31.30
19397;DHT22;9834;48.076;11.878;2024-02-26T14:22:48;24.20;31.20
19397;DHT22;9834;48.076;11.878;2024-02-26T14:25:20;22.80;32.50
19397;DHT22;9834;48.076;11.878;2024-02-26T14:27:50;20.80;33.30
19397;DHT22;9834;48.076;11.878;2024-02-26T14:30:24;20.10;36.40
19397;DHT22;9834;48.076;11.878;2024-02-26T14:32:52;19.60;36.30
19397;DHT22;9834;48.076;11.878;2024-02-26T14:35:22;19.00;37.80
19397;DHT22;9834;48.076;11.878;2024-02-26T14:37:52;18.30;38.90
19397;DHT22;9834;48.076;11.878;2024-02-26T14:40:30;17.60;41.50
19397;DHT22;9834;48.076;11.878;2024-02-26T14:42:58;16.90;43.50
19397;DHT22;9834;48.076;11.878;2024-02-26T14:45:26;16.20;45.10
19397;DHT22;9834;48.076;11.878;2024-02-26T14:47:56;15.70;46.70
19397;DHT22;9834;48.076;11.878;2024-02-26T14:50:27;15.40;46.90
19397;DHT22;9834;48.076;11.878;2024-02-26T14:53:05;14.90;47.40
19397;DHT22;9834;48.076;11.878;2024-02-26T14:55:36;14.60;48.10
19397;DHT22;9834;48.076;11.878;2024-02-26T14:58:04;14.40;49.10
19397;DHT22;9834;48.076;11.878;2024-02-26T15:00:36;14.10;49.90
19397;DHT22;9834;48.076;11.878;2024-02-26T15:03:05;13.80;50.40
19397;DHT22;9834;48.076;11.878;2024-02-26T15:05:33;13.70;51.10
19397;DHT22;9834;48.076;11.878;2024-02-26T15:08:06;13.40;50.90
19397;DHT22;9834;48.076;11.878;2024-02-26T15:10:45;13.20;51.90
19397;DHT22;9834;48.076;11.878;2024-02-26T15:13:15;13.10;52.80
19397;DHT22;9834;48.076;11.878;2024-02-26T15:15:50;12.90;53.30
19397;DHT22;9834;48.076;11.878;2024-02-26T15:18:23;12.90;52.80
19397;DHT22;9834;48.076;11.878;2024-02-26T15:20:54;12.80;53.40
19397;DHT22;9834;48.076;11.878;2024-02-26T15:23:25;12.60;52.90
19397;DHT22;9834;48.076;11.878;2024-02-26T15:25:55;12.50;52.00
19397;DHT22;9834;48.076;11.878;2024-02-26T15:28:25;12.50;53.10
19397;DHT22;9834;48.076;11.878;2024-02-26T15:30:56;12.40;54.00
19397;DHT22;9834;48.076;11.878;2024-02-26T15:33:24;12.20;55.30
19397;DHT22;9834;48.076;11.878;2024-02-26T15:35:57;12.20;55.50
19397;DHT22;9834;48.076;11.878;2024-02-26T15:38:25;12.00;56.70
19397;DHT22;9834;48.076;11.878;2024-02-26T15:41:00;11.90;56.70
19397;DHT22;9834;48.076;11.878;2024-02-26T15:43:27;11.80;57.20
19397;DHT22;9834;48.076;11.878;2024-02-26T15:45:58;11.60;58.70
19397;DHT22;9834;48.076;11.878;2024-02-26T15:48:25;11.50;60.60
19397;DHT22;9834;48.076;11.878;2024-02-26T15:50:55;11.40;58.20
19397;DHT22;9834;48.076;11.878;2024-02-26T15:53:36;11.30;58.70
19397;DHT22;9834;48.076;11.878;2024-02-26T15:56:06;11.30;58.00
19397;DHT22;9834;48.076;11.878;2024-02-26T15:58:36;11.20;60.00
19397;DHT22;9834;48.076;11.878;2024-02-26T16:01:04;11.10;60.50
19397;DHT22;9834;48.076;11.878;2024-02-26T16:03:39;11.00;60.90
19397;DHT22;9834;48.076;11.878;2024-02-26T16:06:23;10.90;61.00
19397;DHT22;9834;48.076;11.878;2024-02-26T16:09:02;10.80;61.70
19397;DHT22;9834;48.076;11.878;2024-02-26T16:11:34;10.80;64.10
19397;DHT22;9834;48.076;11.878;2024-02-26T16:14:28;10.60;65.30
19397;DHT22;9834;48.076;11.878;2024-02-26T16:17:07;10.60;65.50
19397;DHT22;9834;48.076;11.878;2024-02-26T16:19:39;10.50;68.00
19397;DHT22;9834;48.076;11.878;2024-02-26T16:22:09;10.40;67.70
19397;DHT22;9834;48.076;11.878;2024-02-26T16:24:40;10.30;68.90
19397;DHT22;9834;48.076;11.878;2024-02-26T16:27:17;10.30;70.60
19397;DHT22;9834;48.076;11.878;2024-02-26T16:29:52;10.20;70.70
19397;DHT22;9834;48.076;11.878;2024-02-26T16:32:25;10.20;70.40
19397;DHT22;9834;48.076;11.878;2024-02-26T16:34:52;10.10;71.00
19397;DHT22;9834;48.076;11.878;2024-02-26T16:37:20;10.00;70.80
19397;DHT22;9834;48.076;11.878;2024-02-26T16:39:53;9.90;72.10
19397;DHT22;9834;48.076;11.878;2024-02-26T16:42:24;9.90;72.40
19397;DHT22;9834;48.076;11.878;2024-02-26T16:44:52;9.80;74.10
19397;DHT22;9834;48.076;11.878;2024-02-26T16:47:24;9.70;74.40
19397;DHT22;9834;48.076;11.878;2024-02-26T16:49:51;9.70;76.10
19397;DHT22;9834;48.076;11.878;2024-02-26T16:52:22;9.60;76.60
19397;DHT22;9834;48.076;11.878;2024-02-26T16:54:52;9.60;78.00
19397;DHT22;9834;48.076;11.878;2024-02-26T16:57:23;9.60;78.40
19397;DHT22;9834;48.076;11.878;2024-02-26T16:59:53;9.50;80.60
19397;DHT22;9834;48.076;11.878;2024-02-26T17:02:30;9.40;81.10
19397;DHT22;9834;48.076;11.878;2024-02-26T17:05:01;9.40;82.30
19397;DHT22;9834;48.076;11.878;2024-02-26T17:07:29;9.40;82.40
19397;DHT22;9834;48.076;11.878;2024-02-26T17:10:08;9.30;83.30
19397;DHT22;9834;48.076;11.878;2024-02-26T17:12:42;9.30;83.70
19397;DHT22;9834;48.076;11.878;2024-02-26T17:15:13;9.30;85.70
19397;DHT22;9834;48.076;11.878;2024-02-26T17:17:41;9.20;85.40
19397;DHT22;9834;48.076;11.878;2024-02-26T17:23:28;9.20;85.40
19397;DHT22;9834;48.076;11.878;2024-02-26T17:26:02;9.10;86.20
19397;DHT22;9834;48.076;11.878;2024-02-26T17:28:31;9.10;89.10
19397;DHT22;9834;48.076;11.878;2024-02-26T17:31:01;9.00;89.60
19397;DHT22;9834;48.076;11.878;2024-02-26T17:33:31;8.90;90.00
19397;DHT22;9834;48.076;11.878;2024-02-26T17:36:04;8.90;90.10
19397;DHT22;9834;48.076;11.878;2024-02-26T17:38:33;8.90;90.90
19397;DHT22;9834;48.076;11.878;2024-02-26T17:41:08;8.90;91.50
19397;DHT22;9834;48.076;11.878;2024-02-26T17:43:40;8.80;92.40
19397;DHT22;9834;48.076;11.878;2024-02-26T17:46:07;8.80;93.90
19397;DHT22;9834;48.076;11.878;2024-02-26T17:48:35;8.70;94.60
19397;DHT22;9834;48.076;11.878;2024-02-26T17:51:03;8.70;94.60
19397;DHT22;9834;48.076;11.878;2024-02-26T17:53:32;8.60;95.50
19397;DHT22;9834;48.076;11.878;2024-02-26T17:56:00;8.70;96.70
19397;DHT22;9834;48.076;11.878;2024-02-26T17:58:38;8.60;96.60
19397;DHT22;9834;48.076;11.878;2024-02-26T18:01:08;8.60;98.50
19397;DHT22;9834;48.076;11.878;2024-02-26T18:03:35;8.60;98.20
19397;DHT22;9834;48.076;11.878;2024-02-26T18:06:03;8.50;99.20
19397;DHT22;9834;48.076;11.878;2024-02-26T18:08:32;8.50;99.70
19397;DHT22;9834;48.076;11.878;2024-02-26T18:11:04;8.50;99.60
19397;DHT22;9834;48.076;11.878;2024-02-26T18:13:38;8.50;99.90
19397;DHT22;9834;48.076;11.878;2024-02-26T18:16:15;8.50;99.90
19397;DHT22;9834;48.076;11.878;2024-02-26T18:18:42;8.40;99.90
19397;DHT22;9834;48.076;11.878;2024-02-26T18:21:26;8.50;99.90
19397;DHT22;9834;48.076;11.878;2024-02-26T18:23:56;8.40;99.90
19397;DHT22;9834;48.076;11.878;2024-02-26T18:26:30;8.40;99.90
19397;DHT22;9834;48.076;11.878;2024-02-26T18:28:57;8.40;99.90
19397;DHT22;9834;48.076;11.878;2024-02-26T18:31:34;8.20;99.90
19397;DHT22;9834;48.076;11.878;2024-02-26T18:34:08;8.10;99.90
19397;DHT22;9834;48.076;11.878;2024-02-26T18:36:49;8.00;99.90
19397;DHT22;9834;48.076;11.878;2024-02-26T18:39:19;7.90;99.90
19397;DHT22;9834;48.076;11.878;2024-02-26T18:41:46;7.80;99.90
19397;DHT22;9834;48.076;11.878;2024-02-26T18:44:13;7.70;99.90
19397;DHT22;9834;48.076;11.878;2024-02-26T18:46:44;7.60;99.90
19397;DHT22;9834;48.076;11.878;2024-02-26T18:49:14;7.70;99.90
19397;DHT22;9834;48.076;11.878;2024-02-26T18:51:42;7.70;99.90
19397;DHT22;9834;48.076;11.878;2024-02-26T18:54:17;7.90;99.90
19397;DHT22;9834;48.076;11.878;2024-02-26T18:56:56;6.80;99.90
19397;DHT22;9834;48.076;11.878;2024-02-26T18:59:29;7.70;99.90
19397;DHT22;9834;48.076;11.878;2024-02-26T19:01:58;7.60;99.90
19397;DHT22;9834;48.076;11.878;2024-02-26T19:04:26;7.60;99.90
19397;DHT22;9834;48.076;11.878;2024-02-26T19:06:57;7.60;99.90
19397;DHT22;9834;48.076;11.878;2024-02-26T19:09:31;7.60;99.90
19397;DHT22;9834;48.076;11.878;2024-02-26T19:11:58;7.60;99.90
19397;DHT22;9834;48.076;11.878;2024-02-26T19:14:26;7.50;99.90
19397;DHT22;9834;48.076;11.878;2024-02-26T19:16:57;7.50;99.90
19397;DHT22;9834;48.076;11.878;2024-02-26T19:19:29;7.40;99.90
19397;DHT22;9834;48.076;11.878;2024-02-26T19:22:04;7.40;99.90
19397;DHT22;9834;48.076;11.878;2024-02-26T19:24:32;7.40;99.90
19397;DHT22;9834;48.076;11.878;2024-02-26T19:27:08;7.40;99.90
19397;DHT22;9834;48.076;11.878;2024-02-26T19:29:39;7.30;99.90
19397;DHT22;9834;48.076;11.878;2024-02-26T19:32:07;7.30;99.90
19397;DHT22;9834;48.076;11.878;2024-02-26T19:34:38;7.30;99.90
19397;DHT22;9834;48.076;11.878;2024-02-26T19:37:11;7.20;99.90
19397;DHT22;9834;48.076;11.878;2024-02-26T19:39:47;7.20;99.90
19397;DHT22;9834;48.076;11.878;2024-02-26T19:42:15;7.10;99.90
19397;DHT22;9834;48.076;11.878;2024-02-26T19:44:45;7.10;99.90
19397;DHT22;9834;48.076;11.878;2024-02-26T19:47:13;7.00;99.90
19397;DHT22;9834;48.076;11.878;2024-02-26T19:49:52;7.00;99.90
19397;DHT22;9834;48.076;11.878;2024-02-26T19:52:19;6.90;99.90
19397;DHT22;9834;48.076;11.878;2024-02-26T19:54:49;6.80;99.90
19397;DHT22;9834;48.076;11.878;2024-02-26T19:57:16;6.70;99.90
19397;DHT22;9834;48.076;11.878;2024-02-26T19:59:45;6.70;99.90
19397;DHT22;9834;48.076;11.878;2024-02-26T20:02:14;6.70;99.90